sensor_id;sensor_type;location;lat;lon;timestamp;P1;durP1;ratioP1;P2;durP2;ratioP2
75129;SDS011;63703;44.716;37.846;2022-10-01T00:01:54;4.82;;;1.98;;
75129;SDS011;63703;44.716;37.846;2022-10-01T00:04:21;5.05;;;1.42;;
75129;SDS011;63703;44.716;37.846;2022-10-01T00:06:47;9.13;;;2.22;;
75129;SDS011;63703;44.716;37.846;2022-10-01T00:09:13;9.15;;;1.88;;
75129;SDS011;63703;44.716;37.846;2022-10-01T00:11:38;4.03;;;1.15;;
75129;SDS011;63703;44.716;37.846;2022-10-01T00:14:06;8.15;;;1.55;;
75129;SDS011;63703;44.716;37.846;2022-10-01T00:16:33;4.07;;;1.70;;
75129;SDS011;63703;44.716;37.846;2022-10-01T00:18:59;5.88;;;1.63;;
75129;SDS011;63703;44.716;37.846;2022-10-01T00:21:26;5.22;;;1.92;;
75129;SDS011;63703;44.716;37.846;2022-10-01T00:23:54;4.15;;;1.60;;
75129;SDS011;63703;44.716;37.846;2022-10-01T00:26:22;3.63;;;1.85;;
75129;SDS011;63703;44.716;37.846;2022-10-01T00:28:52;5.43;;;1.75;;
75129;SDS011;63703;44.716;37.846;2022-10-01T00:31:20;7.03;;;3.88;;
75129;SDS011;63703;44.716;37.846;2022-10-01T00:33:46;5.00;;;2.13;;
75129;SDS011;63703;44.716;37.846;2022-10-01T00:36:12;7.15;;;1.98;;
75129;SDS011;63703;44.716;37.846;2022-10-01T00:38:39;6.32;;;1.98;;
75129;SDS011;63703;44.716;37.846;2022-10-01T00:41:07;5.68;;;1.52;;
75129;SDS011;63703;44.716;37.846;2022-10-01T00:43:35;5.95;;;2.50;;
75129;SDS011;63703;44.716;37.846;2022-10-01T00:46:08;6.60;;;1.80;;
75129;SDS011;63703;44.716;37.846;2022-10-01T00:49:03;11.65;;;2.80;;
75129;SDS011;63703;44.716;37.846;2022-10-01T00:51:33;13.32;;;3.13;;
75129;SDS011;63703;44.716;37.846;2022-10-01T00:54:08;11.43;;;2.90;;
75129;SDS011;63703;44.716;37.846;2022-10-01T00:56:37;10.77;;;3.50;;
75129;SDS011;63703;44.716;37.846;2022-10-01T00:59:03;16.02;;;3.00;;
75129;SDS011;63703;44.716;37.846;2022-10-01T01:01:30;13.80;;;4.10;;
75129;SDS011;63703;44.716;37.846;2022-10-01T01:04:00;18.55;;;3.67;;
75129;SDS011;63703;44.716;37.846;2022-10-01T01:06:26;8.02;;;2.85;;
75129;SDS011;63703;44.716;37.846;2022-10-01T01:08:52;7.68;;;2.47;;
75129;SDS011;63703;44.716;37.846;2022-10-01T01:14:17;7.30;;;3.22;;
75129;SDS011;63703;44.716;37.846;2022-10-01T01:16:58;5.63;;;2.75;;
75129;SDS011;63703;44.716;37.846;2022-10-01T01:19:38;7.20;;;3.20;;
75129;SDS011;63703;44.716;37.846;2022-10-01T01:22:09;6.20;;;2.65;;
75129;SDS011;63703;44.716;37.846;2022-10-01T01:29:43;7.47;;;2.83;;
75129;SDS011;63703;44.716;37.846;2022-10-01T01:34:57;11.93;;;3.17;;
75129;SDS011;63703;44.716;37.846;2022-10-01T01:37:26;9.48;;;4.07;;
75129;SDS011;63703;44.716;37.846;2022-10-01T01:39:57;15.73;;;3.17;;
75129;SDS011;63703;44.716;37.846;2022-10-01T01:42:29;9.68;;;3.58;;
75129;SDS011;63703;44.716;37.846;2022-10-01T01:45:02;10.95;;;3.38;;
75129;SDS011;63703;44.716;37.846;2022-10-01T01:47:34;9.13;;;4.28;;
75129;SDS011;63703;44.716;37.846;2022-10-01T01:50:03;7.53;;;3.78;;
75129;SDS011;63703;44.716;37.846;2022-10-01T01:52:32;6.53;;;3.53;;
75129;SDS011;63703;44.716;37.846;2022-10-01T01:54:59;9.20;;;3.75;;
75129;SDS011;63703;44.716;37.846;2022-10-01T01:57:35;6.78;;;3.20;;
75129;SDS011;63703;44.716;37.846;2022-10-01T02:00:06;12.40;;;3.40;;
75129;SDS011;63703;44.716;37.846;2022-10-01T02:02:32;7.53;;;3.08;;
75129;SDS011;63703;44.716;37.846;2022-10-01T02:05:04;6.95;;;3.88;;
75129;SDS011;63703;44.716;37.846;2022-10-01T02:18:47;15.93;;;4.35;;
75129;SDS011;63703;44.716;37.846;2022-10-01T02:29:31;6.65;;;3.45;;
75129;SDS011;63703;44.716;37.846;2022-10-01T02:31:59;6.20;;;3.15;;
75129;SDS011;63703;44.716;37.846;2022-10-01T02:34:28;9.38;;;3.90;;
75129;SDS011;63703;44.716;37.846;2022-10-01T02:36:54;11.18;;;3.67;;
75129;SDS011;63703;44.716;37.846;2022-10-01T02:39:23;8.95;;;4.05;;
75129;SDS011;63703;44.716;37.846;2022-10-01T02:41:54;8.73;;;4.68;;
75129;SDS011;63703;44.716;37.846;2022-10-01T02:44:23;10.52;;;3.97;;
75129;SDS011;63703;44.716;37.846;2022-10-01T02:49:32;9.38;;;3.72;;
75129;SDS011;63703;44.716;37.846;2022-10-01T02:52:02;9.13;;;4.95;;
75129;SDS011;63703;44.716;37.846;2022-10-01T02:54:56;8.75;;;3.63;;
75129;SDS011;63703;44.716;37.846;2022-10-01T02:57:25;6.03;;;3.78;;
75129;SDS011;63703;44.716;37.846;2022-10-01T03:00:05;6.80;;;3.25;;
75129;SDS011;63703;44.716;37.846;2022-10-01T03:02:33;7.72;;;4.05;;
75129;SDS011;63703;44.716;37.846;2022-10-01T03:04:59;7.32;;;3.58;;
75129;SDS011;63703;44.716;37.846;2022-10-01T03:07:25;8.73;;;3.33;;
75129;SDS011;63703;44.716;37.846;2022-10-01T03:09:54;7.45;;;3.75;;
75129;SDS011;63703;44.716;37.846;2022-10-01T03:12:20;7.95;;;3.83;;
75129;SDS011;63703;44.716;37.846;2022-10-01T03:14:47;7.40;;;4.88;;
75129;SDS011;63703;44.716;37.846;2022-10-01T03:17:13;7.20;;;4.80;;
75129;SDS011;63703;44.716;37.846;2022-10-01T03:19:40;10.32;;;4.32;;
75129;SDS011;63703;44.716;37.846;2022-10-01T03:22:07;7.03;;;3.65;;
75129;SDS011;63703;44.716;37.846;2022-10-01T03:24:33;9.50;;;4.95;;
75129;SDS011;63703;44.716;37.846;2022-10-01T03:26:59;7.88;;;5.05;;
75129;SDS011;63703;44.716;37.846;2022-10-01T03:29:25;11.70;;;4.97;;
75129;SDS011;63703;44.716;37.846;2022-10-01T03:31:51;9.02;;;4.47;;
75129;SDS011;63703;44.716;37.846;2022-10-01T03:34:18;8.05;;;4.53;;
75129;SDS011;63703;44.716;37.846;2022-10-01T03:36:44;7.53;;;4.45;;
75129;SDS011;63703;44.716;37.846;2022-10-01T03:39:11;9.60;;;4.90;;
75129;SDS011;63703;44.716;37.846;2022-10-01T03:41:37;12.38;;;4.10;;
75129;SDS011;63703;44.716;37.846;2022-10-01T03:44:03;11.57;;;5.25;;
75129;SDS011;63703;44.716;37.846;2022-10-01T03:46:29;9.13;;;4.97;;
75129;SDS011;63703;44.716;37.846;2022-10-01T03:48:55;8.18;;;4.25;;
75129;SDS011;63703;44.716;37.846;2022-10-01T03:51:28;9.40;;;4.38;;
75129;SDS011;63703;44.716;37.846;2022-10-01T03:53:55;10.63;;;4.82;;
75129;SDS011;63703;44.716;37.846;2022-10-01T03:56:22;12.05;;;4.78;;
75129;SDS011;63703;44.716;37.846;2022-10-01T03:58:48;11.77;;;5.07;;
75129;SDS011;63703;44.716;37.846;2022-10-01T04:01:15;9.52;;;4.47;;
75129;SDS011;63703;44.716;37.846;2022-10-01T04:03:41;8.48;;;4.28;;
75129;SDS011;63703;44.716;37.846;2022-10-01T04:06:08;14.18;;;6.85;;
75129;SDS011;63703;44.716;37.846;2022-10-01T04:08:35;11.25;;;6.13;;
75129;SDS011;63703;44.716;37.846;2022-10-01T04:11:02;10.90;;;5.78;;
75129;SDS011;63703;44.716;37.846;2022-10-01T04:13:30;10.15;;;5.80;;
75129;SDS011;63703;44.716;37.846;2022-10-01T04:15:56;15.05;;;7.47;;
75129;SDS011;63703;44.716;37.846;2022-10-01T04:18:22;11.57;;;6.78;;
75129;SDS011;63703;44.716;37.846;2022-10-01T04:20:48;9.65;;;6.78;;
75129;SDS011;63703;44.716;37.846;2022-10-01T04:23:14;11.48;;;5.18;;
75129;SDS011;63703;44.716;37.846;2022-10-01T04:25:40;9.93;;;3.97;;
75129;SDS011;63703;44.716;37.846;2022-10-01T04:28:07;12.10;;;5.65;;
75129;SDS011;63703;44.716;37.846;2022-10-01T04:30:37;9.30;;;5.20;;
75129;SDS011;63703;44.716;37.846;2022-10-01T04:33:05;12.75;;;6.15;;
75129;SDS011;63703;44.716;37.846;2022-10-01T04:35:31;10.93;;;7.05;;
75129;SDS011;63703;44.716;37.846;2022-10-01T04:38:02;10.23;;;5.32;;
75129;SDS011;63703;44.716;37.846;2022-10-01T04:40:30;10.55;;;5.38;;
75129;SDS011;63703;44.716;37.846;2022-10-01T04:42:59;18.25;;;6.13;;
75129;SDS011;63703;44.716;37.846;2022-10-01T04:45:25;10.82;;;6.35;;
75129;SDS011;63703;44.716;37.846;2022-10-01T04:47:52;14.05;;;6.60;;
75129;SDS011;63703;44.716;37.846;2022-10-01T04:50:20;11.13;;;5.85;;
75129;SDS011;63703;44.716;37.846;2022-10-01T04:52:48;15.68;;;6.15;;
75129;SDS011;63703;44.716;37.846;2022-10-01T04:55:14;13.75;;;6.55;;
75129;SDS011;63703;44.716;37.846;2022-10-01T04:57:42;12.95;;;5.90;;
75129;SDS011;63703;44.716;37.846;2022-10-01T05:00:10;16.33;;;6.72;;
75129;SDS011;63703;44.716;37.846;2022-10-01T05:02:38;25.15;;;13.90;;
75129;SDS011;63703;44.716;37.846;2022-10-01T05:05:05;22.13;;;11.90;;
75129;SDS011;63703;44.716;37.846;2022-10-01T05:07:32;18.85;;;10.38;;
75129;SDS011;63703;44.716;37.846;2022-10-01T05:09:59;16.52;;;8.68;;
75129;SDS011;63703;44.716;37.846;2022-10-01T05:12:28;13.10;;;8.15;;
75129;SDS011;63703;44.716;37.846;2022-10-01T05:14:54;14.02;;;7.75;;
75129;SDS011;63703;44.716;37.846;2022-10-01T05:17:21;15.45;;;7.97;;
75129;SDS011;63703;44.716;37.846;2022-10-01T05:19:47;18.08;;;11.57;;
75129;SDS011;63703;44.716;37.846;2022-10-01T05:22:14;18.30;;;10.13;;
75129;SDS011;63703;44.716;37.846;2022-10-01T05:24:41;19.42;;;10.90;;
75129;SDS011;63703;44.716;37.846;2022-10-01T05:27:08;20.45;;;12.35;;
75129;SDS011;63703;44.716;37.846;2022-10-01T05:29:38;20.92;;;11.38;;
75129;SDS011;63703;44.716;37.846;2022-10-01T05:32:07;19.70;;;10.02;;
75129;SDS011;63703;44.716;37.846;2022-10-01T05:34:34;20.27;;;11.00;;
75129;SDS011;63703;44.716;37.846;2022-10-01T05:37:01;17.20;;;10.52;;
75129;SDS011;63703;44.716;37.846;2022-10-01T05:39:30;16.10;;;7.97;;
75129;SDS011;63703;44.716;37.846;2022-10-01T05:41:57;18.52;;;8.05;;
75129;SDS011;63703;44.716;37.846;2022-10-01T05:44:23;20.85;;;7.90;;
75129;SDS011;63703;44.716;37.846;2022-10-01T05:46:51;24.23;;;7.95;;
75129;SDS011;63703;44.716;37.846;2022-10-01T05:49:17;30.55;;;10.38;;
75129;SDS011;63703;44.716;37.846;2022-10-01T05:51:44;21.60;;;8.43;;
75129;SDS011;63703;44.716;37.846;2022-10-01T05:54:10;25.13;;;8.68;;
75129;SDS011;63703;44.716;37.846;2022-10-01T05:56:38;20.13;;;8.65;;
75129;SDS011;63703;44.716;37.846;2022-10-01T05:59:04;32.33;;;9.90;;
75129;SDS011;63703;44.716;37.846;2022-10-01T06:01:30;29.85;;;8.50;;
75129;SDS011;63703;44.716;37.846;2022-10-01T06:03:56;26.70;;;8.82;;
75129;SDS011;63703;44.716;37.846;2022-10-01T06:06:23;19.52;;;8.25;;
75129;SDS011;63703;44.716;37.846;2022-10-01T06:08:50;22.38;;;8.93;;
75129;SDS011;63703;44.716;37.846;2022-10-01T06:11:16;24.60;;;8.48;;
75129;SDS011;63703;44.716;37.846;2022-10-01T06:13:42;25.60;;;7.90;;
75129;SDS011;63703;44.716;37.846;2022-10-01T06:16:11;29.80;;;7.15;;
75129;SDS011;63703;44.716;37.846;2022-10-01T06:18:38;22.55;;;6.25;;
75129;SDS011;63703;44.716;37.846;2022-10-01T06:21:04;15.98;;;4.80;;
75129;SDS011;63703;44.716;37.846;2022-10-01T06:23:30;18.23;;;6.05;;
75129;SDS011;63703;44.716;37.846;2022-10-01T06:25:57;17.92;;;6.45;;
75129;SDS011;63703;44.716;37.846;2022-10-01T06:28:25;12.27;;;4.65;;
75129;SDS011;63703;44.716;37.846;2022-10-01T06:30:50;16.30;;;5.82;;
75129;SDS011;63703;44.716;37.846;2022-10-01T06:33:16;16.02;;;5.55;;
75129;SDS011;63703;44.716;37.846;2022-10-01T06:35:50;10.68;;;3.92;;
75129;SDS011;63703;44.716;37.846;2022-10-01T06:38:17;16.58;;;5.22;;
75129;SDS011;63703;44.716;37.846;2022-10-01T06:40:54;15.07;;;4.72;;
75129;SDS011;63703;44.716;37.846;2022-10-01T06:43:22;14.52;;;4.60;;
75129;SDS011;63703;44.716;37.846;2022-10-01T06:45:48;9.18;;;4.28;;
75129;SDS011;63703;44.716;37.846;2022-10-01T06:48:15;10.27;;;3.70;;
75129;SDS011;63703;44.716;37.846;2022-10-01T06:50:44;12.30;;;3.45;;
75129;SDS011;63703;44.716;37.846;2022-10-01T06:53:12;8.32;;;3.50;;
75129;SDS011;63703;44.716;37.846;2022-10-01T06:55:39;9.00;;;3.75;;
75129;SDS011;63703;44.716;37.846;2022-10-01T06:58:06;8.73;;;3.55;;
75129;SDS011;63703;44.716;37.846;2022-10-01T07:00:36;13.43;;;4.45;;
75129;SDS011;63703;44.716;37.846;2022-10-01T07:03:04;8.18;;;4.18;;
75129;SDS011;63703;44.716;37.846;2022-10-01T07:05:35;10.10;;;4.47;;
75129;SDS011;63703;44.716;37.846;2022-10-01T07:08:04;9.10;;;3.45;;
75129;SDS011;63703;44.716;37.846;2022-10-01T07:10:31;10.75;;;3.50;;
75129;SDS011;63703;44.716;37.846;2022-10-01T07:13:08;13.70;;;4.72;;
75129;SDS011;63703;44.716;37.846;2022-10-01T07:15:36;12.00;;;4.00;;
75129;SDS011;63703;44.716;37.846;2022-10-01T07:18:03;11.80;;;3.20;;
75129;SDS011;63703;44.716;37.846;2022-10-01T07:20:29;8.38;;;3.53;;
75129;SDS011;63703;44.716;37.846;2022-10-01T07:22:59;10.90;;;2.58;;
75129;SDS011;63703;44.716;37.846;2022-10-01T07:25:26;12.32;;;6.47;;
75129;SDS011;63703;44.716;37.846;2022-10-01T07:27:54;10.77;;;4.43;;
75129;SDS011;63703;44.716;37.846;2022-10-01T07:30:30;13.93;;;3.38;;
75129;SDS011;63703;44.716;37.846;2022-10-01T07:32:56;6.85;;;2.63;;
75129;SDS011;63703;44.716;37.846;2022-10-01T07:35:22;9.77;;;4.20;;
75129;SDS011;63703;44.716;37.846;2022-10-01T07:37:49;7.55;;;3.10;;
75129;SDS011;63703;44.716;37.846;2022-10-01T07:40:16;14.52;;;5.05;;
75129;SDS011;63703;44.716;37.846;2022-10-01T07:42:50;7.88;;;3.03;;
75129;SDS011;63703;44.716;37.846;2022-10-01T07:45:19;16.88;;;8.63;;
75129;SDS011;63703;44.716;37.846;2022-10-01T07:47:56;17.67;;;6.20;;
75129;SDS011;63703;44.716;37.846;2022-10-01T07:50:24;8.43;;;3.20;;
75129;SDS011;63703;44.716;37.846;2022-10-01T07:52:51;5.72;;;2.45;;
75129;SDS011;63703;44.716;37.846;2022-10-01T07:55:19;8.63;;;2.63;;
75129;SDS011;63703;44.716;37.846;2022-10-01T07:57:49;6.65;;;2.97;;
75129;SDS011;63703;44.716;37.846;2022-10-01T08:00:18;43.75;;;13.43;;
75129;SDS011;63703;44.716;37.846;2022-10-01T08:02:51;11.63;;;5.57;;
75129;SDS011;63703;44.716;37.846;2022-10-01T08:05:22;10.70;;;4.13;;
75129;SDS011;63703;44.716;37.846;2022-10-01T08:07:49;7.53;;;2.70;;
75129;SDS011;63703;44.716;37.846;2022-10-01T08:10:16;14.18;;;7.35;;
75129;SDS011;63703;44.716;37.846;2022-10-01T08:12:43;9.15;;;2.95;;
75129;SDS011;63703;44.716;37.846;2022-10-01T08:15:10;6.70;;;2.40;;
75129;SDS011;63703;44.716;37.846;2022-10-01T08:17:38;7.63;;;2.92;;
75129;SDS011;63703;44.716;37.846;2022-10-01T08:20:05;6.53;;;3.58;;
75129;SDS011;63703;44.716;37.846;2022-10-01T08:22:32;5.50;;;2.83;;
75129;SDS011;63703;44.716;37.846;2022-10-01T08:24:58;6.10;;;2.30;;
75129;SDS011;63703;44.716;37.846;2022-10-01T08:27:24;7.75;;;2.80;;
75129;SDS011;63703;44.716;37.846;2022-10-01T08:29:50;7.68;;;2.60;;
75129;SDS011;63703;44.716;37.846;2022-10-01T08:32:16;5.68;;;2.45;;
75129;SDS011;63703;44.716;37.846;2022-10-01T08:34:42;8.00;;;2.75;;
75129;SDS011;63703;44.716;37.846;2022-10-01T08:37:08;7.57;;;3.03;;
75129;SDS011;63703;44.716;37.846;2022-10-01T08:39:34;6.00;;;2.45;;
75129;SDS011;63703;44.716;37.846;2022-10-01T08:44:46;7.45;;;3.13;;
75129;SDS011;63703;44.716;37.846;2022-10-01T08:47:21;8.85;;;2.63;;
75129;SDS011;63703;44.716;37.846;2022-10-01T08:50:02;7.88;;;2.83;;
75129;SDS011;63703;44.716;37.846;2022-10-01T08:52:38;5.47;;;2.55;;
75129;SDS011;63703;44.716;37.846;2022-10-01T08:55:15;7.72;;;2.55;;
75129;SDS011;63703;44.716;37.846;2022-10-01T08:57:49;5.03;;;1.83;;
75129;SDS011;63703;44.716;37.846;2022-10-01T09:00:19;4.15;;;1.98;;
75129;SDS011;63703;44.716;37.846;2022-10-01T09:02:45;7.28;;;3.10;;
75129;SDS011;63703;44.716;37.846;2022-10-01T09:10:43;5.63;;;1.88;;
75129;SDS011;63703;44.716;37.846;2022-10-01T09:13:23;5.85;;;2.10;;
75129;SDS011;63703;44.716;37.846;2022-10-01T09:19:05;8.35;;;2.42;;
75129;SDS011;63703;44.716;37.846;2022-10-01T09:22:00;6.57;;;1.98;;
75129;SDS011;63703;44.716;37.846;2022-10-01T09:24:47;7.10;;;2.35;;
75129;SDS011;63703;44.716;37.846;2022-10-01T09:27:31;6.15;;;2.45;;
75129;SDS011;63703;44.716;37.846;2022-10-01T09:30:00;5.40;;;1.73;;
75129;SDS011;63703;44.716;37.846;2022-10-01T09:32:30;5.63;;;2.30;;
75129;SDS011;63703;44.716;37.846;2022-10-01T09:35:02;8.50;;;2.10;;
75129;SDS011;63703;44.716;37.846;2022-10-01T09:37:59;7.68;;;2.35;;
75129;SDS011;63703;44.716;37.846;2022-10-01T09:40:37;7.75;;;2.67;;
75129;SDS011;63703;44.716;37.846;2022-10-01T09:43:32;5.60;;;2.05;;
75129;SDS011;63703;44.716;37.846;2022-10-01T09:45:59;6.60;;;2.28;;
75129;SDS011;63703;44.716;37.846;2022-10-01T09:48:33;4.00;;;1.50;;
75129;SDS011;63703;44.716;37.846;2022-10-01T09:53:41;6.53;;;2.08;;
75129;SDS011;63703;44.716;37.846;2022-10-01T09:56:36;5.25;;;1.98;;
75129;SDS011;63703;44.716;37.846;2022-10-01T09:59:11;6.28;;;1.95;;
75129;SDS011;63703;44.716;37.846;2022-10-01T10:01:49;7.28;;;3.95;;
75129;SDS011;63703;44.716;37.846;2022-10-01T10:04:19;6.28;;;1.67;;
75129;SDS011;63703;44.716;37.846;2022-10-01T10:06:50;3.72;;;2.00;;
75129;SDS011;63703;44.716;37.846;2022-10-01T10:09:26;3.80;;;1.38;;
75129;SDS011;63703;44.716;37.846;2022-10-01T10:11:54;7.45;;;2.17;;
75129;SDS011;63703;44.716;37.846;2022-10-01T10:14:32;6.57;;;1.90;;
75129;SDS011;63703;44.716;37.846;2022-10-01T10:17:10;6.50;;;2.60;;
75129;SDS011;63703;44.716;37.846;2022-10-01T10:19:48;4.50;;;1.45;;
75129;SDS011;63703;44.716;37.846;2022-10-01T10:22:23;6.95;;;1.67;;
75129;SDS011;63703;44.716;37.846;2022-10-01T10:24:51;7.28;;;1.48;;
75129;SDS011;63703;44.716;37.846;2022-10-01T10:27:28;3.92;;;1.77;;
75129;SDS011;63703;44.716;37.846;2022-10-01T10:30:14;5.45;;;1.20;;
75129;SDS011;63703;44.716;37.846;2022-10-01T10:32:42;4.68;;;1.88;;
75129;SDS011;63703;44.716;37.846;2022-10-01T10:35:10;3.33;;;0.57;;
75129;SDS011;63703;44.716;37.846;2022-10-01T10:37:47;6.85;;;1.23;;
75129;SDS011;63703;44.716;37.846;2022-10-01T10:40:23;4.68;;;1.27;;
75129;SDS011;63703;44.716;37.846;2022-10-01T10:42:52;8.30;;;4.10;;
75129;SDS011;63703;44.716;37.846;2022-10-01T10:45:20;5.57;;;1.35;;
75129;SDS011;63703;44.716;37.846;2022-10-01T10:47:55;6.60;;;1.35;;
75129;SDS011;63703;44.716;37.846;2022-10-01T10:50:25;5.90;;;1.48;;
75129;SDS011;63703;44.716;37.846;2022-10-01T10:52:54;5.22;;;0.88;;
75129;SDS011;63703;44.716;37.846;2022-10-01T10:55:26;4.60;;;1.45;;
75129;SDS011;63703;44.716;37.846;2022-10-01T10:58:07;9.18;;;1.23;;
75129;SDS011;63703;44.716;37.846;2022-10-01T11:00:48;6.70;;;1.73;;
75129;SDS011;63703;44.716;37.846;2022-10-01T11:03:16;4.97;;;1.67;;
75129;SDS011;63703;44.716;37.846;2022-10-01T11:05:45;6.35;;;1.05;;
75129;SDS011;63703;44.716;37.846;2022-10-01T11:08:20;7.72;;;1.92;;
75129;SDS011;63703;44.716;37.846;2022-10-01T11:10:59;6.50;;;1.80;;
75129;SDS011;63703;44.716;37.846;2022-10-01T11:18:48;4.60;;;1.67;;
75129;SDS011;63703;44.716;37.846;2022-10-01T11:21:49;4.72;;;1.48;;
75129;SDS011;63703;44.716;37.846;2022-10-01T11:27:00;5.05;;;1.15;;
75129;SDS011;63703;44.716;37.846;2022-10-01T11:43:41;4.55;;;1.75;;
75129;SDS011;63703;44.716;37.846;2022-10-01T11:46:30;11.35;;;1.65;;
75129;SDS011;63703;44.716;37.846;2022-10-01T11:58:16;6.22;;;1.45;;
75129;SDS011;63703;44.716;37.846;2022-10-01T12:01:11;5.97;;;1.60;;
75129;SDS011;63703;44.716;37.846;2022-10-01T12:08:58;8.85;;;1.70;;
75129;SDS011;63703;44.716;37.846;2022-10-01T12:14:32;4.00;;;1.67;;
75129;SDS011;63703;44.716;37.846;2022-10-01T12:17:17;6.72;;;2.38;;
75129;SDS011;63703;44.716;37.846;2022-10-01T12:19:47;7.95;;;1.58;;
75129;SDS011;63703;44.716;37.846;2022-10-01T12:22:28;8.85;;;2.05;;
75129;SDS011;63703;44.716;37.846;2022-10-01T12:25:00;9.10;;;1.80;;
75129;SDS011;63703;44.716;37.846;2022-10-01T12:30:22;6.70;;;1.35;;
75129;SDS011;63703;44.716;37.846;2022-10-01T12:40:40;6.82;;;1.88;;
75129;SDS011;63703;44.716;37.846;2022-10-01T13:13:05;4.90;;;1.33;;
75129;SDS011;63703;44.716;37.846;2022-10-01T13:15:42;5.55;;;1.15;;
75129;SDS011;63703;44.716;37.846;2022-10-01T13:35:26;5.10;;;1.80;;
75129;SDS011;63703;44.716;37.846;2022-10-01T13:37:57;6.70;;;1.02;;
75129;SDS011;63703;44.716;37.846;2022-10-01T13:40:31;6.65;;;1.90;;
75129;SDS011;63703;44.716;37.846;2022-10-01T13:43:00;6.93;;;1.17;;
75129;SDS011;63703;44.716;37.846;2022-10-01T13:50:32;6.93;;;1.27;;
75129;SDS011;63703;44.716;37.846;2022-10-01T13:53:06;6.35;;;1.23;;
75129;SDS011;63703;44.716;37.846;2022-10-01T13:55:43;5.00;;;1.45;;
75129;SDS011;63703;44.716;37.846;2022-10-01T14:01:47;18.92;;;5.07;;
75129;SDS011;63703;44.716;37.846;2022-10-01T14:06:51;5.50;;;1.23;;
75129;SDS011;63703;44.716;37.846;2022-10-01T14:09:23;6.03;;;1.65;;
75129;SDS011;63703;44.716;37.846;2022-10-01T14:11:53;4.13;;;1.48;;
75129;SDS011;63703;44.716;37.846;2022-10-01T14:14:48;17.55;;;4.85;;
75129;SDS011;63703;44.716;37.846;2022-10-01T14:17:38;7.75;;;2.47;;
75129;SDS011;63703;44.716;37.846;2022-10-01T14:20:06;5.47;;;1.70;;
75129;SDS011;63703;44.716;37.846;2022-10-01T14:35:51;9.82;;;2.05;;
75129;SDS011;63703;44.716;37.846;2022-10-01T14:38:39;20.30;;;6.43;;
75129;SDS011;63703;44.716;37.846;2022-10-01T14:41:05;7.45;;;2.55;;
75129;SDS011;63703;44.716;37.846;2022-10-01T14:43:40;6.93;;;3.35;;
75129;SDS011;63703;44.716;37.846;2022-10-01T14:46:11;17.25;;;5.93;;
75129;SDS011;63703;44.716;37.846;2022-10-01T14:48:39;212.07;;;107.70;;
75129;SDS011;63703;44.716;37.846;2022-10-01T14:51:18;142.55;;;92.22;;
75129;SDS011;63703;44.716;37.846;2022-10-01T14:53:56;28.08;;;14.48;;
75129;SDS011;63703;44.716;37.846;2022-10-01T14:56:24;13.23;;;6.53;;
75129;SDS011;63703;44.716;37.846;2022-10-01T14:58:53;9.55;;;3.40;;
75129;SDS011;63703;44.716;37.846;2022-10-01T15:01:26;8.88;;;3.20;;
75129;SDS011;63703;44.716;37.846;2022-10-01T15:03:52;17.25;;;10.85;;
75129;SDS011;63703;44.716;37.846;2022-10-01T15:06:20;10.90;;;4.47;;
75129;SDS011;63703;44.716;37.846;2022-10-01T15:08:49;21.75;;;16.05;;
75129;SDS011;63703;44.716;37.846;2022-10-01T15:11:21;7.03;;;3.08;;
75129;SDS011;63703;44.716;37.846;2022-10-01T15:13:50;18.63;;;13.18;;
75129;SDS011;63703;44.716;37.846;2022-10-01T15:16:18;14.45;;;6.60;;
75129;SDS011;63703;44.716;37.846;2022-10-01T15:18:47;10.40;;;4.85;;
75129;SDS011;63703;44.716;37.846;2022-10-01T15:21:25;10.43;;;4.45;;
75129;SDS011;63703;44.716;37.846;2022-10-01T15:23:52;51.05;;;26.17;;
75129;SDS011;63703;44.716;37.846;2022-10-01T15:26:20;56.55;;;26.42;;
75129;SDS011;63703;44.716;37.846;2022-10-01T15:28:48;205.63;;;108.03;;
75129;SDS011;63703;44.716;37.846;2022-10-01T15:31:14;66.70;;;29.58;;
75129;SDS011;63703;44.716;37.846;2022-10-01T15:33:41;195.38;;;77.05;;
75129;SDS011;63703;44.716;37.846;2022-10-01T15:36:11;268.77;;;111.72;;
75129;SDS011;63703;44.716;37.846;2022-10-01T15:38:41;218.98;;;84.35;;
75129;SDS011;63703;44.716;37.846;2022-10-01T15:41:15;479.35;;;179.98;;
75129;SDS011;63703;44.716;37.846;2022-10-01T15:43:50;90.55;;;35.38;;
75129;SDS011;63703;44.716;37.846;2022-10-01T15:48:43;144.85;;;53.20;;
75129;SDS011;63703;44.716;37.846;2022-10-01T15:51:23;53.97;;;21.73;;
75129;SDS011;63703;44.716;37.846;2022-10-01T15:53:52;14.88;;;7.50;;
75129;SDS011;63703;44.716;37.846;2022-10-01T15:56:28;8.35;;;5.88;;
75129;SDS011;63703;44.716;37.846;2022-10-01T15:59:00;16.23;;;8.25;;
75129;SDS011;63703;44.716;37.846;2022-10-01T16:01:43;10.30;;;5.53;;
75129;SDS011;63703;44.716;37.846;2022-10-01T16:04:10;11.05;;;5.93;;
75129;SDS011;63703;44.716;37.846;2022-10-01T16:06:48;166.57;;;57.50;;
75129;SDS011;63703;44.716;37.846;2022-10-01T16:09:25;24.90;;;11.20;;
75129;SDS011;63703;44.716;37.846;2022-10-01T16:11:54;13.80;;;7.00;;
75129;SDS011;63703;44.716;37.846;2022-10-01T16:14:41;16.92;;;8.20;;
75129;SDS011;63703;44.716;37.846;2022-10-01T16:17:20;13.70;;;6.07;;
75129;SDS011;63703;44.716;37.846;2022-10-01T16:22:41;6.15;;;3.80;;
75129;SDS011;63703;44.716;37.846;2022-10-01T16:27:59;8.82;;;4.65;;
75129;SDS011;63703;44.716;37.846;2022-10-01T16:30:30;10.93;;;4.78;;
75129;SDS011;63703;44.716;37.846;2022-10-01T16:32:59;7.85;;;4.10;;
75129;SDS011;63703;44.716;37.846;2022-10-01T16:35:35;10.20;;;4.13;;
75129;SDS011;63703;44.716;37.846;2022-10-01T16:38:04;9.07;;;4.13;;
75129;SDS011;63703;44.716;37.846;2022-10-01T16:43:03;8.23;;;3.90;;
75129;SDS011;63703;44.716;37.846;2022-10-01T16:45:38;13.02;;;7.68;;
75129;SDS011;63703;44.716;37.846;2022-10-01T16:48:17;12.07;;;6.63;;
75129;SDS011;63703;44.716;37.846;2022-10-01T16:50:46;7.93;;;4.55;;
75129;SDS011;63703;44.716;37.846;2022-10-01T16:53:14;9.27;;;5.25;;
75129;SDS011;63703;44.716;37.846;2022-10-01T16:55:41;7.90;;;4.25;;
75129;SDS011;63703;44.716;37.846;2022-10-01T16:58:08;9.23;;;4.10;;
75129;SDS011;63703;44.716;37.846;2022-10-01T17:00:35;8.35;;;3.42;;
75129;SDS011;63703;44.716;37.846;2022-10-01T17:03:02;8.82;;;3.53;;
75129;SDS011;63703;44.716;37.846;2022-10-01T17:05:31;7.22;;;3.67;;
75129;SDS011;63703;44.716;37.846;2022-10-01T17:08:03;7.00;;;3.40;;
75129;SDS011;63703;44.716;37.846;2022-10-01T17:10:36;5.68;;;3.17;;
75129;SDS011;63703;44.716;37.846;2022-10-01T17:13:06;7.20;;;2.90;;
75129;SDS011;63703;44.716;37.846;2022-10-01T17:15:32;7.40;;;3.72;;
75129;SDS011;63703;44.716;37.846;2022-10-01T17:17:58;8.45;;;3.53;;
75129;SDS011;63703;44.716;37.846;2022-10-01T17:20:25;7.68;;;2.80;;
75129;SDS011;63703;44.716;37.846;2022-10-01T17:22:53;8.95;;;1.50;;
75129;SDS011;63703;44.716;37.846;2022-10-01T17:25:21;9.95;;;3.03;;
75129;SDS011;63703;44.716;37.846;2022-10-01T17:27:49;6.50;;;3.28;;
75129;SDS011;63703;44.716;37.846;2022-10-01T17:30:15;5.05;;;1.85;;
75129;SDS011;63703;44.716;37.846;2022-10-01T17:32:41;6.20;;;2.95;;
75129;SDS011;63703;44.716;37.846;2022-10-01T17:35:11;4.43;;;2.38;;
75129;SDS011;63703;44.716;37.846;2022-10-01T17:37:39;4.47;;;1.48;;
75129;SDS011;63703;44.716;37.846;2022-10-01T17:40:06;6.18;;;2.17;;
75129;SDS011;63703;44.716;37.846;2022-10-01T17:42:33;5.07;;;1.77;;
75129;SDS011;63703;44.716;37.846;2022-10-01T17:45:00;5.07;;;2.40;;
75129;SDS011;63703;44.716;37.846;2022-10-01T17:47:28;5.90;;;1.95;;